Matamoros, México

6:34 PM CDT en Octubre 25, 2014 (GMT -0500)
Brownsville-South Padre I International | Change Station
CLOSE
Current Station
Aeropuerto
Location: Brownsville,
Altura: 20 ft
Estaciones meteorológicas cercanas

Alt 20 ft 25.91 °N, 97.42 °W | Updated 41 minutes ago

Clear
Despejado
80 ° F
Sensación térmica 82 ° F
N
9
Viento Variable Viento desde Este

Hoy
Alta -- | Baja -- ° F
--% Posibilidad de precipitaciones
Ayer
Alta -- | Baja -- ° F
Precip. -- pul
7:34 AM 6:53 PM
Creciente, 5% visible
Presión 30.08 pul
Visibilidad 10.0 Millas
Nubes Despejado
Índice de calor 82 ° F
Punto de rocío 66 ° F
Humedad 62%
Precipitaciones 0.00 pul
Espesor de la nieve No disponible.
UV 1 de una escala de 12
Polen No disponible.
Calidad del aire No disponible.
Flu Activity No disponible.
METAR KBRO 252253Z 09008KT 10SM CLR 27/19 A3008 RMK AO2 SLP185 T02670189 $

More Conditions Fewer Conditions

Presión 30.08 pul
Visibilidad 10.0 Millas
Nubes Despejado
Índice de calor 82 ° F
Punto de rocío 66 ° F
Humedad 62%
Precipitaciones 0.00 pul
Espesor de la nieve No disponible.
UV 1 de una escala de 12
Polen No disponible.
Calidad del aire No disponible.
Flu Activity No disponible.
METAR KBRO 252253Z 09008KT 10SM CLR 27/19 A3008 RMK AO2 SLP185 T02670189 $

More Conditions Fewer Conditions

10-Day Weather Forecast

Almanac

Astronomía

Oct. 25, 2014 Salida Puesta
Hora real 7:34 AM CDT 6:53 PM CDT
Crepúsculo civil 7:10 AM CDT 7:17 PM CDT
Crepúsculo náutico 6:43 AM CDT 7:44 PM CDT
Crepúsculo astronómico 6:16 AM CDT 8:10 PM CDT
Luna 9:07 AM CDT 8:26 PM CDT
Horas de luz 12h 06m
Horas de luz
11h 19m
Tomorrow will be 1m 22s shorter.
Creciente, 5% of the Moon is Illuminated
Hoy
Creciente
Oct 30
Cuarto creciente
Nov 6
Luna llena
Nov 14
Cuarto menguante
Nov 22
Nueva

Extremos de hoy

Máximos del país Bajas del país

Community

WunderPhotos

Upload Photos

1,765,034 ¡fotos cargadas!

Nearby

Calidad del aire

Not available.

Grosos de nieve

Not available.

Actividad de terremotos

Ciudad Distance Mag. Tiempo y dato
No hay informes recientes de la actividad sísmica.
Magnitud mínima muestra es 2,5.

Temperaturas de aguas costeras

Lugar Temperatura
Sin partes meteorológicos de las estaciones

Estaciones meteorológicas cercanas